sensor_id;sensor_type;location;lat;lon;timestamp;P1;durP1;ratioP1;P2;durP2;ratioP2
19754;SDS011;10036;47.812;9.274;2023-03-26T00:01:16;5.35;;;2.70;;
19754;SDS011;10036;47.812;9.274;2023-03-26T00:03:45;6.45;;;3.20;;
19754;SDS011;10036;47.812;9.274;2023-03-26T00:06:18;7.00;;;3.60;;
19754;SDS011;10036;47.812;9.274;2023-03-26T00:08:48;12.95;;;4.00;;
19754;SDS011;10036;47.812;9.274;2023-03-26T00:11:17;4.72;;;3.40;;
19754;SDS011;10036;47.812;9.274;2023-03-26T00:13:46;6.93;;;3.30;;
19754;SDS011;10036;47.812;9.274;2023-03-26T00:16:13;6.85;;;3.42;;
19754;SDS011;10036;47.812;9.274;2023-03-26T00:18:41;6.70;;;3.70;;
19754;SDS011;10036;47.812;9.274;2023-03-26T00:21:09;6.90;;;4.20;;
19754;SDS011;10036;47.812;9.274;2023-03-26T00:23:40;8.40;;;4.57;;
19754;SDS011;10036;47.812;9.274;2023-03-26T00:26:07;8.18;;;4.20;;
19754;SDS011;10036;47.812;9.274;2023-03-26T00:28:35;8.77;;;4.40;;
19754;SDS011;10036;47.812;9.274;2023-03-26T00:31:04;6.25;;;3.72;;
19754;SDS011;10036;47.812;9.274;2023-03-26T00:33:34;9.93;;;4.63;;
19754;SDS011;10036;47.812;9.274;2023-03-26T00:36:03;9.73;;;4.50;;
19754;SDS011;10036;47.812;9.274;2023-03-26T00:38:33;17.42;;;6.88;;
19754;SDS011;10036;47.812;9.274;2023-03-26T00:41:04;14.85;;;6.50;;
19754;SDS011;10036;47.812;9.274;2023-03-26T00:43:33;16.70;;;7.35;;
19754;SDS011;10036;47.812;9.274;2023-03-26T00:46:01;15.90;;;6.45;;
19754;SDS011;10036;47.812;9.274;2023-03-26T00:48:28;10.18;;;4.88;;
19754;SDS011;10036;47.812;9.274;2023-03-26T00:50:55;10.13;;;5.03;;
19754;SDS011;10036;47.812;9.274;2023-03-26T00:53:22;11.77;;;5.32;;
19754;SDS011;10036;47.812;9.274;2023-03-26T00:55:49;9.43;;;4.75;;
19754;SDS011;10036;47.812;9.274;2023-03-26T00:58:17;12.25;;;4.80;;
19754;SDS011;10036;47.812;9.274;2023-03-26T01:00:48;8.82;;;3.83;;
19754;SDS011;10036;47.812;9.274;2023-03-26T01:03:21;10.85;;;4.10;;
19754;SDS011;10036;47.812;9.274;2023-03-26T01:05:50;10.55;;;4.30;;
19754;SDS011;10036;47.812;9.274;2023-03-26T01:08:20;8.93;;;3.53;;
19754;SDS011;10036;47.812;9.274;2023-03-26T01:10:51;8.68;;;3.92;;
19754;SDS011;10036;47.812;9.274;2023-03-26T01:13:29;12.13;;;3.90;;
19754;SDS011;10036;47.812;9.274;2023-03-26T01:15:58;8.95;;;3.67;;
19754;SDS011;10036;47.812;9.274;2023-03-26T01:18:26;8.43;;;3.88;;
19754;SDS011;10036;47.812;9.274;2023-03-26T01:20:58;9.18;;;3.58;;
19754;SDS011;10036;47.812;9.274;2023-03-26T01:23:36;6.13;;;2.72;;
19754;SDS011;10036;47.812;9.274;2023-03-26T01:26:13;10.50;;;2.92;;
19754;SDS011;10036;47.812;9.274;2023-03-26T01:28:50;8.93;;;2.45;;
19754;SDS011;10036;47.812;9.274;2023-03-26T01:31:23;4.38;;;2.20;;
19754;SDS011;10036;47.812;9.274;2023-03-26T01:33:55;8.98;;;2.63;;
19754;SDS011;10036;47.812;9.274;2023-03-26T01:36:29;6.78;;;2.30;;
19754;SDS011;10036;47.812;9.274;2023-03-26T01:39:03;6.30;;;2.60;;
19754;SDS011;10036;47.812;9.274;2023-03-26T01:41:44;3.33;;;2.05;;
19754;SDS011;10036;47.812;9.274;2023-03-26T01:44:15;8.00;;;2.50;;
19754;SDS011;10036;47.812;9.274;2023-03-26T01:46:48;7.30;;;2.65;;
19754;SDS011;10036;47.812;9.274;2023-03-26T01:49:16;7.15;;;2.70;;
19754;SDS011;10036;47.812;9.274;2023-03-26T01:51:43;4.28;;;2.00;;
19754;SDS011;10036;47.812;9.274;2023-03-26T01:54:12;5.05;;;2.30;;
19754;SDS011;10036;47.812;9.274;2023-03-26T01:56:42;4.75;;;2.53;;
19754;SDS011;10036;47.812;9.274;2023-03-26T01:59:21;10.07;;;3.33;;
19754;SDS011;10036;47.812;9.274;2023-03-26T02:01:59;8.00;;;2.85;;
19754;SDS011;10036;47.812;9.274;2023-03-26T02:04:33;5.90;;;3.05;;
19754;SDS011;10036;47.812;9.274;2023-03-26T02:07:08;8.05;;;3.03;;
19754;SDS011;10036;47.812;9.274;2023-03-26T02:09:43;8.18;;;3.53;;
19754;SDS011;10036;47.812;9.274;2023-03-26T02:12:15;9.80;;;3.63;;
19754;SDS011;10036;47.812;9.274;2023-03-26T02:14:44;7.40;;;3.40;;
19754;SDS011;10036;47.812;9.274;2023-03-26T02:17:11;7.22;;;3.55;;
19754;SDS011;10036;47.812;9.274;2023-03-26T02:19:38;10.30;;;3.33;;
19754;SDS011;10036;47.812;9.274;2023-03-26T02:22:06;4.88;;;2.58;;
19754;SDS011;10036;47.812;9.274;2023-03-26T02:24:35;8.98;;;2.45;;
19754;SDS011;10036;47.812;9.274;2023-03-26T02:27:02;5.43;;;2.50;;
19754;SDS011;10036;47.812;9.274;2023-03-26T02:29:33;7.47;;;2.40;;
19754;SDS011;10036;47.812;9.274;2023-03-26T02:32:02;3.28;;;1.98;;
19754;SDS011;10036;47.812;9.274;2023-03-26T02:34:30;5.35;;;1.85;;
19754;SDS011;10036;47.812;9.274;2023-03-26T02:36:57;7.00;;;2.25;;
19754;SDS011;10036;47.812;9.274;2023-03-26T02:39:24;6.38;;;2.90;;
19754;SDS011;10036;47.812;9.274;2023-03-26T02:41:51;7.20;;;3.03;;
19754;SDS011;10036;47.812;9.274;2023-03-26T02:44:18;5.20;;;2.65;;
19754;SDS011;10036;47.812;9.274;2023-03-26T02:46:46;5.45;;;2.80;;
19754;SDS011;10036;47.812;9.274;2023-03-26T02:49:13;4.63;;;2.65;;
19754;SDS011;10036;47.812;9.274;2023-03-26T02:51:40;5.55;;;2.70;;
19754;SDS011;10036;47.812;9.274;2023-03-26T02:54:07;6.80;;;2.83;;
19754;SDS011;10036;47.812;9.274;2023-03-26T02:56:34;6.07;;;2.92;;
19754;SDS011;10036;47.812;9.274;2023-03-26T02:59:01;3.78;;;2.55;;
19754;SDS011;10036;47.812;9.274;2023-03-26T03:01:27;5.20;;;2.45;;
19754;SDS011;10036;47.812;9.274;2023-03-26T03:04:01;4.50;;;2.40;;
19754;SDS011;10036;47.812;9.274;2023-03-26T03:06:29;5.22;;;2.35;;
19754;SDS011;10036;47.812;9.274;2023-03-26T03:08:56;6.38;;;2.63;;
19754;SDS011;10036;47.812;9.274;2023-03-26T03:11:23;3.55;;;2.35;;
19754;SDS011;10036;47.812;9.274;2023-03-26T03:13:50;5.18;;;2.05;;
19754;SDS011;10036;47.812;9.274;2023-03-26T03:16:18;2.58;;;2.13;;
19754;SDS011;10036;47.812;9.274;2023-03-26T03:18:46;5.93;;;2.13;;
19754;SDS011;10036;47.812;9.274;2023-03-26T03:21:19;4.18;;;2.17;;
19754;SDS011;10036;47.812;9.274;2023-03-26T03:23:46;5.18;;;2.35;;
19754;SDS011;10036;47.812;9.274;2023-03-26T03:26:13;3.67;;;2.63;;
19754;SDS011;10036;47.812;9.274;2023-03-26T03:28:42;4.03;;;2.58;;
19754;SDS011;10036;47.812;9.274;2023-03-26T03:31:09;4.13;;;3.10;;
19754;SDS011;10036;47.812;9.274;2023-03-26T03:33:36;8.38;;;3.80;;
19754;SDS011;10036;47.812;9.274;2023-03-26T03:36:03;7.07;;;3.50;;
19754;SDS011;10036;47.812;9.274;2023-03-26T03:38:35;4.20;;;2.80;;
19754;SDS011;10036;47.812;9.274;2023-03-26T03:41:02;7.65;;;3.20;;
19754;SDS011;10036;47.812;9.274;2023-03-26T03:43:30;8.75;;;3.70;;
19754;SDS011;10036;47.812;9.274;2023-03-26T03:45:57;5.68;;;3.08;;
19754;SDS011;10036;47.812;9.274;2023-03-26T03:48:25;9.68;;;3.70;;
19754;SDS011;10036;47.812;9.274;2023-03-26T03:50:52;5.68;;;3.10;;
19754;SDS011;10036;47.812;9.274;2023-03-26T03:53:19;5.47;;;3.33;;
19754;SDS011;10036;47.812;9.274;2023-03-26T03:55:47;7.22;;;3.05;;
19754;SDS011;10036;47.812;9.274;2023-03-26T03:58:17;7.25;;;2.92;;
19754;SDS011;10036;47.812;9.274;2023-03-26T04:00:46;5.60;;;3.05;;
19754;SDS011;10036;47.812;9.274;2023-03-26T04:03:14;5.25;;;2.60;;
19754;SDS011;10036;47.812;9.274;2023-03-26T04:05:41;3.38;;;2.63;;
19754;SDS011;10036;47.812;9.274;2023-03-26T04:08:13;4.97;;;2.20;;
19754;SDS011;10036;47.812;9.274;2023-03-26T04:10:40;4.63;;;2.25;;
19754;SDS011;10036;47.812;9.274;2023-03-26T04:13:09;4.13;;;2.25;;
19754;SDS011;10036;47.812;9.274;2023-03-26T04:15:36;4.10;;;2.15;;
19754;SDS011;10036;47.812;9.274;2023-03-26T04:18:03;5.05;;;2.40;;
19754;SDS011;10036;47.812;9.274;2023-03-26T04:20:34;6.03;;;2.40;;
19754;SDS011;10036;47.812;9.274;2023-03-26T04:23:01;5.28;;;2.00;;
19754;SDS011;10036;47.812;9.274;2023-03-26T04:25:28;7.53;;;2.70;;
19754;SDS011;10036;47.812;9.274;2023-03-26T04:27:57;6.72;;;2.60;;
19754;SDS011;10036;47.812;9.274;2023-03-26T04:30:32;5.38;;;2.25;;
19754;SDS011;10036;47.812;9.274;2023-03-26T04:33:00;6.95;;;2.17;;
19754;SDS011;10036;47.812;9.274;2023-03-26T04:35:28;4.68;;;2.20;;
19754;SDS011;10036;47.812;9.274;2023-03-26T04:38:00;7.70;;;2.70;;
19754;SDS011;10036;47.812;9.274;2023-03-26T04:40:30;9.93;;;2.33;;
19754;SDS011;10036;47.812;9.274;2023-03-26T04:42:58;6.72;;;2.00;;
19754;SDS011;10036;47.812;9.274;2023-03-26T04:45:27;5.55;;;2.15;;
19754;SDS011;10036;47.812;9.274;2023-03-26T04:47:56;10.68;;;2.10;;
19754;SDS011;10036;47.812;9.274;2023-03-26T04:50:23;8.80;;;2.28;;
19754;SDS011;10036;47.812;9.274;2023-03-26T04:52:51;5.20;;;1.98;;
19754;SDS011;10036;47.812;9.274;2023-03-26T04:55:21;5.60;;;1.90;;
19754;SDS011;10036;47.812;9.274;2023-03-26T04:57:54;6.55;;;2.30;;
19754;SDS011;10036;47.812;9.274;2023-03-26T05:00:23;4.75;;;1.95;;
19754;SDS011;10036;47.812;9.274;2023-03-26T05:02:52;6.47;;;2.10;;
19754;SDS011;10036;47.812;9.274;2023-03-26T05:05:23;6.95;;;2.58;;
19754;SDS011;10036;47.812;9.274;2023-03-26T05:07:50;7.20;;;2.45;;
19754;SDS011;10036;47.812;9.274;2023-03-26T05:10:17;5.63;;;2.80;;
19754;SDS011;10036;47.812;9.274;2023-03-26T05:12:45;6.63;;;2.70;;
19754;SDS011;10036;47.812;9.274;2023-03-26T05:15:12;7.15;;;2.78;;
19754;SDS011;10036;47.812;9.274;2023-03-26T05:17:40;8.65;;;2.42;;
19754;SDS011;10036;47.812;9.274;2023-03-26T05:20:11;6.82;;;2.72;;
19754;SDS011;10036;47.812;9.274;2023-03-26T05:22:46;5.82;;;2.50;;
19754;SDS011;10036;47.812;9.274;2023-03-26T05:25:14;7.70;;;2.42;;
19754;SDS011;10036;47.812;9.274;2023-03-26T05:27:41;5.10;;;2.03;;
19754;SDS011;10036;47.812;9.274;2023-03-26T05:30:09;4.15;;;2.53;;
19754;SDS011;10036;47.812;9.274;2023-03-26T05:32:38;7.32;;;2.30;;
19754;SDS011;10036;47.812;9.274;2023-03-26T05:35:05;7.32;;;2.70;;
19754;SDS011;10036;47.812;9.274;2023-03-26T05:37:33;4.40;;;2.50;;
19754;SDS011;10036;47.812;9.274;2023-03-26T05:40:03;5.53;;;2.40;;
19754;SDS011;10036;47.812;9.274;2023-03-26T05:42:35;7.25;;;2.75;;
19754;SDS011;10036;47.812;9.274;2023-03-26T05:45:02;8.80;;;2.40;;
19754;SDS011;10036;47.812;9.274;2023-03-26T05:47:29;6.65;;;2.50;;
19754;SDS011;10036;47.812;9.274;2023-03-26T05:49:56;4.43;;;2.40;;
19754;SDS011;10036;47.812;9.274;2023-03-26T05:52:24;6.43;;;2.17;;
19754;SDS011;10036;47.812;9.274;2023-03-26T05:54:51;5.25;;;2.55;;
19754;SDS011;10036;47.812;9.274;2023-03-26T05:57:19;4.88;;;2.25;;
19754;SDS011;10036;47.812;9.274;2023-03-26T05:59:47;9.45;;;2.55;;
19754;SDS011;10036;47.812;9.274;2023-03-26T06:02:14;4.97;;;2.42;;
19754;SDS011;10036;47.812;9.274;2023-03-26T06:04:41;3.75;;;2.45;;
19754;SDS011;10036;47.812;9.274;2023-03-26T06:07:09;6.53;;;2.58;;
19754;SDS011;10036;47.812;9.274;2023-03-26T06:09:37;8.45;;;2.20;;
19754;SDS011;10036;47.812;9.274;2023-03-26T06:12:05;6.10;;;2.65;;
19754;SDS011;10036;47.812;9.274;2023-03-26T06:14:33;5.95;;;2.45;;
19754;SDS011;10036;47.812;9.274;2023-03-26T06:17:00;4.85;;;2.78;;
19754;SDS011;10036;47.812;9.274;2023-03-26T06:19:27;8.05;;;2.60;;
19754;SDS011;10036;47.812;9.274;2023-03-26T06:21:54;4.25;;;2.25;;
19754;SDS011;10036;47.812;9.274;2023-03-26T06:24:21;6.80;;;2.40;;
19754;SDS011;10036;47.812;9.274;2023-03-26T06:26:48;6.45;;;2.30;;
19754;SDS011;10036;47.812;9.274;2023-03-26T06:29:15;6.00;;;2.35;;
19754;SDS011;10036;47.812;9.274;2023-03-26T06:31:43;7.40;;;2.15;;
19754;SDS011;10036;47.812;9.274;2023-03-26T06:34:10;6.80;;;3.08;;
19754;SDS011;10036;47.812;9.274;2023-03-26T06:36:37;6.22;;;3.00;;
19754;SDS011;10036;47.812;9.274;2023-03-26T06:39:04;3.97;;;2.85;;
19754;SDS011;10036;47.812;9.274;2023-03-26T06:41:31;8.95;;;3.42;;
19754;SDS011;10036;47.812;9.274;2023-03-26T06:43:58;5.35;;;2.97;;
19754;SDS011;10036;47.812;9.274;2023-03-26T06:46:25;5.10;;;3.08;;
19754;SDS011;10036;47.812;9.274;2023-03-26T06:48:53;5.00;;;3.55;;
19754;SDS011;10036;47.812;9.274;2023-03-26T06:51:20;4.55;;;2.50;;
19754;SDS011;10036;47.812;9.274;2023-03-26T06:53:47;9.30;;;2.85;;
19754;SDS011;10036;47.812;9.274;2023-03-26T06:56:14;5.38;;;2.42;;
19754;SDS011;10036;47.812;9.274;2023-03-26T06:58:40;4.88;;;2.70;;
19754;SDS011;10036;47.812;9.274;2023-03-26T07:01:07;3.67;;;2.53;;
19754;SDS011;10036;47.812;9.274;2023-03-26T07:03:34;5.50;;;2.53;;
19754;SDS011;10036;47.812;9.274;2023-03-26T07:06:03;2.75;;;2.20;;
19754;SDS011;10036;47.812;9.274;2023-03-26T07:08:30;5.03;;;2.92;;
19754;SDS011;10036;47.812;9.274;2023-03-26T07:10:57;5.25;;;2.80;;
19754;SDS011;10036;47.812;9.274;2023-03-26T07:13:27;5.63;;;3.05;;
19754;SDS011;10036;47.812;9.274;2023-03-26T07:15:54;7.45;;;2.50;;
19754;SDS011;10036;47.812;9.274;2023-03-26T07:18:20;8.25;;;2.78;;
19754;SDS011;10036;47.812;9.274;2023-03-26T07:20:48;10.13;;;3.15;;
19754;SDS011;10036;47.812;9.274;2023-03-26T07:23:17;4.22;;;2.80;;
19754;SDS011;10036;47.812;9.274;2023-03-26T07:25:45;17.48;;;8.35;;
19754;SDS011;10036;47.812;9.274;2023-03-26T07:28:17;18.20;;;10.25;;
19754;SDS011;10036;47.812;9.274;2023-03-26T07:30:51;19.50;;;9.32;;
19754;SDS011;10036;47.812;9.274;2023-03-26T07:33:27;13.80;;;9.27;;
19754;SDS011;10036;47.812;9.274;2023-03-26T07:36:02;16.10;;;9.15;;
19754;SDS011;10036;47.812;9.274;2023-03-26T07:38:43;18.98;;;10.70;;
19754;SDS011;10036;47.812;9.274;2023-03-26T07:41:19;17.08;;;10.43;;
19754;SDS011;10036;47.812;9.274;2023-03-26T07:43:57;26.13;;;15.00;;
19754;SDS011;10036;47.812;9.274;2023-03-26T07:46:35;18.85;;;10.05;;
19754;SDS011;10036;47.812;9.274;2023-03-26T07:49:03;10.73;;;7.55;;
19754;SDS011;10036;47.812;9.274;2023-03-26T07:51:31;14.50;;;8.65;;
19754;SDS011;10036;47.812;9.274;2023-03-26T07:54:00;18.90;;;11.13;;
19754;SDS011;10036;47.812;9.274;2023-03-26T07:56:30;12.82;;;7.28;;
19754;SDS011;10036;47.812;9.274;2023-03-26T07:59:04;9.20;;;4.20;;
19754;SDS011;10036;47.812;9.274;2023-03-26T08:01:43;5.15;;;2.90;;
19754;SDS011;10036;47.812;9.274;2023-03-26T08:04:25;3.60;;;2.63;;
19754;SDS011;10036;47.812;9.274;2023-03-26T08:07:10;5.25;;;3.10;;
19754;SDS011;10036;47.812;9.274;2023-03-26T08:09:48;3.03;;;2.42;;
19754;SDS011;10036;47.812;9.274;2023-03-26T08:12:26;3.92;;;2.30;;
19754;SDS011;10036;47.812;9.274;2023-03-26T08:15:02;3.08;;;2.80;;
19754;SDS011;10036;47.812;9.274;2023-03-26T08:17:37;4.40;;;2.40;;
19754;SDS011;10036;47.812;9.274;2023-03-26T08:20:10;6.55;;;3.30;;
19754;SDS011;10036;47.812;9.274;2023-03-26T08:22:49;6.05;;;3.38;;
19754;SDS011;10036;47.812;9.274;2023-03-26T08:25:26;6.55;;;3.53;;
19754;SDS011;10036;47.812;9.274;2023-03-26T08:28:01;8.15;;;6.85;;
19754;SDS011;10036;47.812;9.274;2023-03-26T08:30:32;6.00;;;5.20;;
19754;SDS011;10036;47.812;9.274;2023-03-26T08:33:01;5.72;;;4.47;;
19754;SDS011;10036;47.812;9.274;2023-03-26T08:35:39;4.10;;;3.60;;
19754;SDS011;10036;47.812;9.274;2023-03-26T08:38:06;3.95;;;2.92;;
19754;SDS011;10036;47.812;9.274;2023-03-26T08:46:39;5.95;;;4.03;;
19754;SDS011;10036;47.812;9.274;2023-03-26T08:52:19;10.90;;;6.78;;
19754;SDS011;10036;47.812;9.274;2023-03-26T08:58:07;5.20;;;3.53;;
19754;SDS011;10036;47.812;9.274;2023-03-26T09:01:07;3.70;;;3.35;;
19754;SDS011;10036;47.812;9.274;2023-03-26T09:03:53;4.95;;;3.50;;
19754;SDS011;10036;47.812;9.274;2023-03-26T09:06:39;8.18;;;4.57;;
19754;SDS011;10036;47.812;9.274;2023-03-26T09:12:52;5.22;;;3.05;;
19754;SDS011;10036;47.812;9.274;2023-03-26T09:18:55;4.57;;;2.50;;
19754;SDS011;10036;47.812;9.274;2023-03-26T09:21:48;3.88;;;2.58;;
19754;SDS011;10036;47.812;9.274;2023-03-26T09:24:50;5.13;;;3.22;;
19754;SDS011;10036;47.812;9.274;2023-03-26T09:27:37;12.27;;;6.60;;
19754;SDS011;10036;47.812;9.274;2023-03-26T09:30:12;10.80;;;6.03;;
19754;SDS011;10036;47.812;9.274;2023-03-26T09:33:16;6.00;;;3.50;;
19754;SDS011;10036;47.812;9.274;2023-03-26T09:36:10;4.53;;;3.08;;
19754;SDS011;10036;47.812;9.274;2023-03-26T09:38:47;6.45;;;3.78;;
19754;SDS011;10036;47.812;9.274;2023-03-26T09:41:21;8.68;;;4.00;;
19754;SDS011;10036;47.812;9.274;2023-03-26T09:47:26;5.40;;;2.70;;
19754;SDS011;10036;47.812;9.274;2023-03-26T09:50:13;6.47;;;2.65;;
19754;SDS011;10036;47.812;9.274;2023-03-26T09:52:57;4.97;;;3.08;;
19754;SDS011;10036;47.812;9.274;2023-03-26T09:55:39;10.60;;;4.75;;
19754;SDS011;10036;47.812;9.274;2023-03-26T09:58:22;5.97;;;3.33;;
19754;SDS011;10036;47.812;9.274;2023-03-26T10:01:09;10.93;;;5.07;;
19754;SDS011;10036;47.812;9.274;2023-03-26T10:03:46;9.00;;;3.90;;
19754;SDS011;10036;47.812;9.274;2023-03-26T10:06:26;4.15;;;3.10;;
19754;SDS011;10036;47.812;9.274;2023-03-26T10:11:57;4.78;;;3.13;;
19754;SDS011;10036;47.812;9.274;2023-03-26T10:14:47;3.28;;;2.60;;
19754;SDS011;10036;47.812;9.274;2023-03-26T10:17:26;5.68;;;3.42;;
19754;SDS011;10036;47.812;9.274;2023-03-26T10:22:58;5.35;;;2.70;;
19754;SDS011;10036;47.812;9.274;2023-03-26T10:25:39;3.08;;;2.53;;
19754;SDS011;10036;47.812;9.274;2023-03-26T10:28:32;3.38;;;2.17;;
19754;SDS011;10036;47.812;9.274;2023-03-26T10:34:03;4.45;;;2.30;;
19754;SDS011;10036;47.812;9.274;2023-03-26T10:36:41;4.10;;;2.40;;
19754;SDS011;10036;47.812;9.274;2023-03-26T10:39:27;2.90;;;2.40;;
19754;SDS011;10036;47.812;9.274;2023-03-26T10:42:28;4.65;;;2.42;;
19754;SDS011;10036;47.812;9.274;2023-03-26T10:45:13;3.42;;;2.35;;
19754;SDS011;10036;47.812;9.274;2023-03-26T10:48:01;2.75;;;1.90;;
19754;SDS011;10036;47.812;9.274;2023-03-26T10:50:48;3.22;;;2.40;;
19754;SDS011;10036;47.812;9.274;2023-03-26T10:53:25;3.15;;;1.90;;
19754;SDS011;10036;47.812;9.274;2023-03-26T10:56:00;4.55;;;2.92;;
19754;SDS011;10036;47.812;9.274;2023-03-26T10:58:34;2.80;;;2.10;;
19754;SDS011;10036;47.812;9.274;2023-03-26T11:01:02;4.35;;;3.03;;
19754;SDS011;10036;47.812;9.274;2023-03-26T11:03:40;4.70;;;2.72;;
19754;SDS011;10036;47.812;9.274;2023-03-26T11:06:19;9.25;;;4.32;;
19754;SDS011;10036;47.812;9.274;2023-03-26T11:09:02;5.95;;;4.03;;
19754;SDS011;10036;47.812;9.274;2023-03-26T11:11:41;6.45;;;4.60;;
19754;SDS011;10036;47.812;9.274;2023-03-26T11:14:15;5.22;;;2.97;;
19754;SDS011;10036;47.812;9.274;2023-03-26T11:16:48;5.18;;;3.40;;
19754;SDS011;10036;47.812;9.274;2023-03-26T11:19:26;5.22;;;2.90;;
19754;SDS011;10036;47.812;9.274;2023-03-26T11:21:59;3.50;;;2.67;;
19754;SDS011;10036;47.812;9.274;2023-03-26T11:24:36;4.53;;;2.33;;
19754;SDS011;10036;47.812;9.274;2023-03-26T11:27:15;5.40;;;2.47;;
19754;SDS011;10036;47.812;9.274;2023-03-26T11:29:51;2.85;;;2.10;;
19754;SDS011;10036;47.812;9.274;2023-03-26T11:32:29;2.92;;;1.85;;
19754;SDS011;10036;47.812;9.274;2023-03-26T11:35:05;5.28;;;2.17;;
19754;SDS011;10036;47.812;9.274;2023-03-26T11:37:41;3.78;;;1.98;;
19754;SDS011;10036;47.812;9.274;2023-03-26T11:40:12;4.70;;;2.20;;
19754;SDS011;10036;47.812;9.274;2023-03-26T11:42:46;4.28;;;2.30;;
19754;SDS011;10036;47.812;9.274;2023-03-26T11:45:16;4.03;;;1.75;;
19754;SDS011;10036;47.812;9.274;2023-03-26T11:47:47;3.75;;;2.00;;
19754;SDS011;10036;47.812;9.274;2023-03-26T11:50:17;3.75;;;2.10;;
19754;SDS011;10036;47.812;9.274;2023-03-26T11:52:47;3.28;;;2.00;;
19754;SDS011;10036;47.812;9.274;2023-03-26T11:55:14;4.55;;;2.25;;
19754;SDS011;10036;47.812;9.274;2023-03-26T11:57:43;3.25;;;2.08;;
19754;SDS011;10036;47.812;9.274;2023-03-26T12:00:15;3.72;;;2.00;;
19754;SDS011;10036;47.812;9.274;2023-03-26T12:02:45;3.60;;;2.05;;
19754;SDS011;10036;47.812;9.274;2023-03-26T12:05:15;4.03;;;2.45;;
19754;SDS011;10036;47.812;9.274;2023-03-26T12:07:45;3.97;;;2.55;;
19754;SDS011;10036;47.812;9.274;2023-03-26T12:10:26;4.55;;;2.33;;
19754;SDS011;10036;47.812;9.274;2023-03-26T12:12:58;3.25;;;1.90;;
19754;SDS011;10036;47.812;9.274;2023-03-26T12:15:27;2.60;;;2.22;;
19754;SDS011;10036;47.812;9.274;2023-03-26T12:17:56;3.92;;;1.98;;
19754;SDS011;10036;47.812;9.274;2023-03-26T12:20:34;4.65;;;1.85;;
19754;SDS011;10036;47.812;9.274;2023-03-26T12:23:03;3.85;;;2.13;;
19754;SDS011;10036;47.812;9.274;2023-03-26T12:25:32;2.33;;;1.60;;
19754;SDS011;10036;47.812;9.274;2023-03-26T12:28:03;3.17;;;1.52;;
19754;SDS011;10036;47.812;9.274;2023-03-26T12:30:37;4.03;;;1.60;;
19754;SDS011;10036;47.812;9.274;2023-03-26T12:33:06;3.83;;;1.80;;
19754;SDS011;10036;47.812;9.274;2023-03-26T12:35:40;2.90;;;1.65;;
19754;SDS011;10036;47.812;9.274;2023-03-26T12:38:12;2.38;;;1.60;;
19754;SDS011;10036;47.812;9.274;2023-03-26T12:40:43;1.83;;;1.70;;
19754;SDS011;10036;47.812;9.274;2023-03-26T12:43:21;3.60;;;1.65;;
19754;SDS011;10036;47.812;9.274;2023-03-26T12:45:54;3.70;;;1.75;;
19754;SDS011;10036;47.812;9.274;2023-03-26T12:48:23;2.35;;;1.60;;
19754;SDS011;10036;47.812;9.274;2023-03-26T12:50:57;2.72;;;1.50;;
19754;SDS011;10036;47.812;9.274;2023-03-26T12:53:36;3.45;;;1.58;;
19754;SDS011;10036;47.812;9.274;2023-03-26T12:56:15;2.80;;;1.50;;
19754;SDS011;10036;47.812;9.274;2023-03-26T12:58:50;2.20;;;1.10;;
19754;SDS011;10036;47.812;9.274;2023-03-26T13:01:31;2.35;;;1.60;;
19754;SDS011;10036;47.812;9.274;2023-03-26T13:04:11;5.20;;;1.90;;
19754;SDS011;10036;47.812;9.274;2023-03-26T13:06:59;4.15;;;1.80;;
19754;SDS011;10036;47.812;9.274;2023-03-26T13:09:37;3.20;;;1.60;;
19754;SDS011;10036;47.812;9.274;2023-03-26T13:12:30;3.75;;;1.95;;
19754;SDS011;10036;47.812;9.274;2023-03-26T13:15:13;5.43;;;1.70;;
19754;SDS011;10036;47.812;9.274;2023-03-26T13:17:45;3.47;;;1.55;;
19754;SDS011;10036;47.812;9.274;2023-03-26T13:20:21;2.95;;;2.08;;
19754;SDS011;10036;47.812;9.274;2023-03-26T13:22:54;5.53;;;1.80;;
19754;SDS011;10036;47.812;9.274;2023-03-26T13:25:30;5.15;;;1.90;;
19754;SDS011;10036;47.812;9.274;2023-03-26T13:28:09;2.97;;;1.45;;
19754;SDS011;10036;47.812;9.274;2023-03-26T13:30:47;2.42;;;1.30;;
19754;SDS011;10036;47.812;9.274;2023-03-26T13:33:24;1.85;;;1.25;;
19754;SDS011;10036;47.812;9.274;2023-03-26T13:35:58;1.48;;;1.23;;
19754;SDS011;10036;47.812;9.274;2023-03-26T13:38:37;3.88;;;1.73;;
19754;SDS011;10036;47.812;9.274;2023-03-26T13:41:17;5.10;;;1.65;;
19754;SDS011;10036;47.812;9.274;2023-03-26T13:43:53;3.17;;;1.88;;
19754;SDS011;10036;47.812;9.274;2023-03-26T13:46:31;2.70;;;1.50;;
19754;SDS011;10036;47.812;9.274;2023-03-26T13:49:02;1.35;;;1.25;;
19754;SDS011;10036;47.812;9.274;2023-03-26T13:51:36;6.70;;;1.40;;
19754;SDS011;10036;47.812;9.274;2023-03-26T13:54:10;1.55;;;1.20;;
19754;SDS011;10036;47.812;9.274;2023-03-26T13:56:44;3.47;;;1.50;;
19754;SDS011;10036;47.812;9.274;2023-03-26T13:59:16;2.92;;;1.80;;
19754;SDS011;10036;47.812;9.274;2023-03-26T14:01:49;1.88;;;1.67;;
19754;SDS011;10036;47.812;9.274;2023-03-26T14:04:22;4.15;;;1.70;;
19754;SDS011;10036;47.812;9.274;2023-03-26T14:06:56;5.20;;;2.10;;
19754;SDS011;10036;47.812;9.274;2023-03-26T14:09:27;1.75;;;1.35;;
19754;SDS011;10036;47.812;9.274;2023-03-26T14:12:00;2.30;;;1.67;;
19754;SDS011;10036;47.812;9.274;2023-03-26T14:14:37;4.82;;;1.83;;
19754;SDS011;10036;47.812;9.274;2023-03-26T14:17:13;4.15;;;1.67;;
19754;SDS011;10036;47.812;9.274;2023-03-26T14:22:54;1.40;;;1.30;;
19754;SDS011;10036;47.812;9.274;2023-03-26T14:25:46;1.23;;;1.13;;
19754;SDS011;10036;47.812;9.274;2023-03-26T14:28:27;4.05;;;1.50;;
19754;SDS011;10036;47.812;9.274;2023-03-26T14:31:10;2.70;;;1.52;;
19754;SDS011;10036;47.812;9.274;2023-03-26T14:36:52;2.17;;;1.20;;
19754;SDS011;10036;47.812;9.274;2023-03-26T14:39:49;2.85;;;1.30;;
19754;SDS011;10036;47.812;9.274;2023-03-26T14:42:40;1.98;;;1.30;;
19754;SDS011;10036;47.812;9.274;2023-03-26T14:45:28;1.08;;;1.08;;
19754;SDS011;10036;47.812;9.274;2023-03-26T14:48:35;1.65;;;1.23;;
19754;SDS011;10036;47.812;9.274;2023-03-26T14:51:20;5.22;;;1.70;;
19754;SDS011;10036;47.812;9.274;2023-03-26T14:53:59;3.00;;;1.38;;
19754;SDS011;10036;47.812;9.274;2023-03-26T14:56:37;3.55;;;1.58;;
19754;SDS011;10036;47.812;9.274;2023-03-26T15:06:03;4.13;;;1.83;;
19754;SDS011;10036;47.812;9.274;2023-03-26T15:12:03;3.33;;;2.83;;
19754;SDS011;10036;47.812;9.274;2023-03-26T15:14:41;2.60;;;1.50;;
19754;SDS011;10036;47.812;9.274;2023-03-26T15:17:40;2.70;;;1.67;;
19754;SDS011;10036;47.812;9.274;2023-03-26T15:20:35;2.28;;;1.30;;
19754;SDS011;10036;47.812;9.274;2023-03-26T15:26:53;2.88;;;1.30;;
19754;SDS011;10036;47.812;9.274;2023-03-26T15:29:51;4.22;;;1.20;;
19754;SDS011;10036;47.812;9.274;2023-03-26T15:32:48;4.50;;;1.30;;
19754;SDS011;10036;47.812;9.274;2023-03-26T15:35:53;1.20;;;1.10;;
19754;SDS011;10036;47.812;9.274;2023-03-26T15:38:59;2.63;;;1.25;;
19754;SDS011;10036;47.812;9.274;2023-03-26T15:41:50;1.83;;;1.23;;
19754;SDS011;10036;47.812;9.274;2023-03-26T15:44:28;1.30;;;1.20;;
19754;SDS011;10036;47.812;9.274;2023-03-26T15:47:25;1.65;;;1.13;;
19754;SDS011;10036;47.812;9.274;2023-03-26T15:50:23;2.63;;;1.23;;
19754;SDS011;10036;47.812;9.274;2023-03-26T15:52:59;2.55;;;1.30;;
19754;SDS011;10036;47.812;9.274;2023-03-26T15:55:42;3.15;;;1.20;;
19754;SDS011;10036;47.812;9.274;2023-03-26T15:58:27;2.38;;;1.25;;
19754;SDS011;10036;47.812;9.274;2023-03-26T16:01:06;1.20;;;1.10;;
19754;SDS011;10036;47.812;9.274;2023-03-26T16:03:45;2.00;;;1.20;;
19754;SDS011;10036;47.812;9.274;2023-03-26T16:06:29;1.48;;;1.08;;
19754;SDS011;10036;47.812;9.274;2023-03-26T16:09:17;2.00;;;1.20;;
19754;SDS011;10036;47.812;9.274;2023-03-26T16:11:56;1.00;;;1.00;;
19754;SDS011;10036;47.812;9.274;2023-03-26T16:14:37;1.10;;;1.05;;
19754;SDS011;10036;47.812;9.274;2023-03-26T16:17:10;1.10;;;1.00;;